createdAt,value
2022-10-22T00:00:46.864Z,15.70
2022-10-22T00:01:46.827Z,15.60
2022-10-22T00:02:46.871Z,15.66
2022-10-22T00:03:46.747Z,15.64
2022-10-22T00:04:46.746Z,15.55
2022-10-22T00:05:46.670Z,15.60
2022-10-22T00:06:46.635Z,15.67
2022-10-22T00:07:46.592Z,15.62
2022-10-22T00:08:46.596Z,15.68
2022-10-22T00:09:46.513Z,15.64
2022-10-22T00:10:46.474Z,15.73
2022-10-22T00:11:46.437Z,15.64
2022-10-22T00:12:46.396Z,15.59
2022-10-22T00:14:46.321Z,15.59
2022-10-22T00:15:46.283Z,15.59
2022-10-22T00:16:46.240Z,15.60
2022-10-22T00:17:46.200Z,15.60
2022-10-22T00:18:46.164Z,15.59
2022-10-22T00:19:46.138Z,15.62
2022-10-22T00:20:46.089Z,15.56
2022-10-22T00:21:46.044Z,15.59
2022-10-22T00:22:46.055Z,15.71
2022-10-22T00:23:45.966Z,15.66
2022-10-22T00:24:45.930Z,15.64
2022-10-22T00:25:45.902Z,15.70
2022-10-22T00:26:45.850Z,15.68
2022-10-22T00:27:45.809Z,15.64
2022-10-22T00:28:45.772Z,15.74
2022-10-22T00:29:45.733Z,15.71
2022-10-22T00:30:45.695Z,15.71
2022-10-22T00:31:45.761Z,15.67
2022-10-22T00:32:45.616Z,15.53
2022-10-22T00:33:45.578Z,15.59
2022-10-22T00:34:45.543Z,15.64
2022-10-22T00:35:45.501Z,15.60
2022-10-22T00:36:45.459Z,15.67
2022-10-22T00:37:45.437Z,15.64
2022-10-22T00:38:45.384Z,15.62
2022-10-22T00:39:45.343Z,15.59
2022-10-22T00:40:45.306Z,15.59
2022-10-22T00:41:45.266Z,15.55
2022-10-22T00:42:45.227Z,15.62
2022-10-22T00:43:45.200Z,15.56
2022-10-22T00:44:45.150Z,15.62
2022-10-22T00:45:45.109Z,15.62
2022-10-22T00:46:45.072Z,15.64
2022-10-22T00:47:45.031Z,15.67
2022-10-22T00:48:44.996Z,15.58
2022-10-22T00:49:44.990Z,15.68
2022-10-22T00:50:44.916Z,15.71
2022-10-22T00:51:44.876Z,15.66
2022-10-22T00:52:44.837Z,15.73
2022-10-22T00:53:44.798Z,15.66
2022-10-22T00:54:44.761Z,15.66
2022-10-22T00:55:44.728Z,15.64
2022-10-22T00:56:44.680Z,15.67
2022-10-22T00:57:44.643Z,15.62
2022-10-22T00:58:44.610Z,15.71
2022-10-22T00:59:44.564Z,15.70
2022-10-22T01:00:44.609Z,15.68
2022-10-22T01:01:44.498Z,15.67
2022-10-22T01:02:44.448Z,15.77
2022-10-22T01:03:44.410Z,15.74
2022-10-22T01:04:44.370Z,15.71
2022-10-22T01:05:44.334Z,15.68
2022-10-22T01:06:44.291Z,15.60
2022-10-22T01:07:44.271Z,15.62
2022-10-22T01:08:44.349Z,15.76
2022-10-22T01:09:44.173Z,15.68
2022-10-22T01:10:44.136Z,15.67
2022-10-22T01:11:44.097Z,15.68
2022-10-22T01:12:44.067Z,15.67
2022-10-22T01:13:44.027Z,15.73
2022-10-22T01:14:43.983Z,15.76
2022-10-22T01:15:43.940Z,15.84
2022-10-22T01:16:43.902Z,15.76
2022-10-22T01:17:44.053Z,15.85
2022-10-22T01:18:43.825Z,15.84
2022-10-22T01:19:43.794Z,15.76
2022-10-22T01:20:43.761Z,15.74
2022-10-22T01:21:43.708Z,15.78
2022-10-22T01:22:43.671Z,15.73
2022-10-22T01:23:43.635Z,15.85
2022-10-22T01:24:43.591Z,15.81
2022-10-22T01:25:43.566Z,15.70
2022-10-22T01:26:43.518Z,15.81
2022-10-22T01:27:43.762Z,15.84
2022-10-22T01:28:43.434Z,15.73
2022-10-22T01:29:43.400Z,15.78
2022-10-22T01:30:43.369Z,15.84
2022-10-22T01:31:43.337Z,15.78
2022-10-22T01:32:43.281Z,15.70
2022-10-22T01:33:43.240Z,15.68
2022-10-22T01:34:43.212Z,15.70
2022-10-22T01:35:43.170Z,15.73
2022-10-22T01:36:43.134Z,15.71
2022-10-22T01:37:43.410Z,15.68
2022-10-22T01:38:43.046Z,15.74
2022-10-22T01:39:43.004Z,15.78
2022-10-22T01:40:42.967Z,15.67
2022-10-22T01:41:42.930Z,15.78
2022-10-22T01:42:42.903Z,15.85
2022-10-22T01:43:42.853Z,15.68
2022-10-22T01:44:42.812Z,15.77
2022-10-22T01:45:42.771Z,15.73
2022-10-22T01:46:42.735Z,15.66
2022-10-22T01:47:43.079Z,15.70
2022-10-22T01:48:42.671Z,15.74
2022-10-22T01:49:42.616Z,15.66
2022-10-22T01:50:42.580Z,15.66
2022-10-22T01:51:42.541Z,15.74
2022-10-22T01:52:42.502Z,15.70
2022-10-22T01:53:42.529Z,15.66
2022-10-22T01:54:42.432Z,15.55
2022-10-22T01:55:42.383Z,15.67
2022-10-22T01:56:42.345Z,15.70
2022-10-22T01:57:42.886Z,15.70
2022-10-22T01:58:42.269Z,15.55
2022-10-22T01:59:42.230Z,15.64
2022-10-22T02:00:42.214Z,15.62
2022-10-22T02:01:42.160Z,15.67
2022-10-22T02:02:42.166Z,15.60
2022-10-22T02:03:42.070Z,15.60
2022-10-22T02:04:42.033Z,15.67
2022-10-22T02:05:42.006Z,15.66
2022-10-22T02:06:41.965Z,15.59
2022-10-22T02:07:42.098Z,15.60
2022-10-22T02:08:41.897Z,15.58
2022-10-22T02:09:41.837Z,15.66
2022-10-22T02:10:41.799Z,15.64
2022-10-22T02:11:41.777Z,15.66
2022-10-22T02:12:42.078Z,15.70
2022-10-22T02:13:41.692Z,15.59
2022-10-22T02:14:41.646Z,15.70
2022-10-22T02:15:41.602Z,15.67
2022-10-22T02:16:41.567Z,15.60
2022-10-22T02:17:41.528Z,15.66
2022-10-22T02:18:41.500Z,15.55
2022-10-22T02:19:41.450Z,15.76
2022-10-22T02:20:41.410Z,15.62
2022-10-22T02:21:41.370Z,15.60
2022-10-22T02:22:41.609Z,15.59
2022-10-22T02:23:41.293Z,15.73
2022-10-22T02:24:41.266Z,15.59
2022-10-22T02:25:41.215Z,15.64
2022-10-22T02:26:41.179Z,15.67
2022-10-22T02:27:41.137Z,15.68
2022-10-22T02:28:41.105Z,15.68
2022-10-22T02:29:41.061Z,15.73
2022-10-22T02:30:41.030Z,15.70
2022-10-22T02:31:40.981Z,15.64
2022-10-22T02:32:41.269Z,15.66
2022-10-22T02:33:40.904Z,15.62
2022-10-22T02:34:40.865Z,15.70
2022-10-22T02:35:40.825Z,15.64
2022-10-22T02:36:40.800Z,15.71
2022-10-22T02:37:40.750Z,15.60
2022-10-22T02:38:40.708Z,15.62
2022-10-22T02:39:40.670Z,15.71
2022-10-22T02:40:40.631Z,15.66
2022-10-22T02:41:40.591Z,15.67
2022-10-22T02:42:40.836Z,15.70
2022-10-22T02:43:40.516Z,15.70
2022-10-22T02:44:40.477Z,15.62
2022-10-22T02:45:40.443Z,15.68
2022-10-22T02:46:40.406Z,15.74
2022-10-22T02:47:40.362Z,15.70
2022-10-22T02:48:40.333Z,15.71
2022-10-22T02:49:40.283Z,15.66
2022-10-22T02:50:40.242Z,15.64
2022-10-22T02:51:40.209Z,15.66
2022-10-22T02:52:40.525Z,15.62
2022-10-22T02:53:48.939Z,15.59
2022-10-22T02:54:40.084Z,15.60
2022-10-22T02:55:40.047Z,15.59
2022-10-22T02:56:40.008Z,15.60
2022-10-22T02:57:40.208Z,15.62
2022-10-22T02:58:39.928Z,15.73
2022-10-22T02:59:39.899Z,15.66
2022-10-22T03:00:39.897Z,15.64
2022-10-22T03:01:39.815Z,15.53
2022-10-22T03:02:39.773Z,15.53
2022-10-22T03:03:39.740Z,15.51
2022-10-22T03:04:39.694Z,15.66
2022-10-22T03:05:39.671Z,15.62
2022-10-22T03:06:39.631Z,15.67
2022-10-22T03:07:39.756Z,15.56
2022-10-22T03:08:39.648Z,15.52
2022-10-22T03:09:39.503Z,15.55
2022-10-22T03:10:39.461Z,15.49
2022-10-22T03:11:39.422Z,15.49
2022-10-22T03:12:39.403Z,15.49
2022-10-22T03:13:39.358Z,15.49
2022-10-22T03:14:39.305Z,15.46
2022-10-22T03:15:39.265Z,15.40
2022-10-22T03:16:39.237Z,15.41
2022-10-22T03:17:39.383Z,15.52
2022-10-22T03:18:39.159Z,15.41
2022-10-22T03:19:39.109Z,15.52
2022-10-22T03:20:39.065Z,15.44
2022-10-22T03:21:39.033Z,15.38
2022-10-22T03:22:38.995Z,15.49
2022-10-22T03:23:38.953Z,15.43
2022-10-22T03:24:38.924Z,15.40
2022-10-22T03:25:38.875Z,15.41
2022-10-22T03:26:38.847Z,15.31
2022-10-22T03:27:39.210Z,15.37
2022-10-22T03:28:38.769Z,15.31
2022-10-22T03:29:38.718Z,15.34
2022-10-22T03:30:38.680Z,15.37
2022-10-22T03:31:38.641Z,15.38
2022-10-22T03:32:38.599Z,15.28
2022-10-22T03:33:38.562Z,15.34
2022-10-22T03:34:38.540Z,15.28
2022-10-22T03:35:38.481Z,15.31
2022-10-22T03:36:38.461Z,15.23
2022-10-22T03:37:38.608Z,15.37
2022-10-22T03:38:38.369Z,15.22
2022-10-22T03:39:38.327Z,15.30
2022-10-22T03:40:38.289Z,15.28
2022-10-22T03:41:38.254Z,15.31
2022-10-22T03:42:38.226Z,15.37
2022-10-22T03:43:38.171Z,15.33
2022-10-22T03:44:38.130Z,15.33
2022-10-22T03:46:38.054Z,15.22
2022-10-22T03:47:38.242Z,15.20
2022-10-22T03:48:37.988Z,15.27
2022-10-22T03:49:37.932Z,15.18
2022-10-22T03:50:37.894Z,15.23
2022-10-22T03:51:37.860Z,15.19
2022-10-22T03:52:37.819Z,15.25
2022-10-22T03:53:37.782Z,15.31
2022-10-22T03:55:37.703Z,15.28
2022-10-22T03:56:37.661Z,15.28
2022-10-22T03:57:37.799Z,15.28
2022-10-22T03:58:37.583Z,15.22
2022-10-22T03:59:37.545Z,15.27
2022-10-22T04:00:37.517Z,15.28
2022-10-22T04:01:37.524Z,15.28
2022-10-22T04:02:37.425Z,15.23
2022-10-22T04:03:37.385Z,15.28
2022-10-22T04:04:37.348Z,15.22
2022-10-22T04:05:37.312Z,15.15
2022-10-22T04:06:37.280Z,15.27
2022-10-22T04:07:37.505Z,15.25
2022-10-22T04:08:37.229Z,15.27
2022-10-22T04:09:37.151Z,15.25
2022-10-22T04:10:37.114Z,15.31
2022-10-22T04:11:37.073Z,15.37
2022-10-22T04:12:37.046Z,15.31
2022-10-22T04:13:37.006Z,15.34
2022-10-22T04:14:36.961Z,15.34
2022-10-22T04:15:36.947Z,15.35
2022-10-22T04:16:36.882Z,15.34
2022-10-22T04:17:36.989Z,15.31
2022-10-22T04:18:36.813Z,15.37
2022-10-22T04:19:36.764Z,15.33
2022-10-22T04:20:36.735Z,15.33
2022-10-22T04:21:36.681Z,15.34
2022-10-22T04:22:36.642Z,15.35
2022-10-22T04:23:36.605Z,15.38
2022-10-22T04:24:36.681Z,15.37
2022-10-22T04:25:36.543Z,15.31
2022-10-22T04:26:36.489Z,15.30
2022-10-22T04:27:36.459Z,15.23
2022-10-22T04:28:36.409Z,15.22
2022-10-22T04:29:36.371Z,15.25
2022-10-22T04:30:36.332Z,15.28
2022-10-22T04:31:36.304Z,15.27
2022-10-22T04:32:36.251Z,15.22
2022-10-22T04:33:36.223Z,15.25
2022-10-22T04:34:36.180Z,15.19
2022-10-22T04:35:36.141Z,15.18
2022-10-22T04:36:36.102Z,15.11
2022-10-22T04:37:36.084Z,15.18
2022-10-22T04:38:36.023Z,15.12
2022-10-22T04:39:35.979Z,15.12
2022-10-22T04:40:35.941Z,15.09
2022-10-22T04:41:35.905Z,15.11
2022-10-22T04:42:35.863Z,15.13
2022-10-22T04:43:35.839Z,15.12
2022-10-22T04:44:35.785Z,15.05
2022-10-22T04:45:35.744Z,15.05
2022-10-22T04:46:35.703Z,15.04
2022-10-22T04:47:35.670Z,14.97
2022-10-22T04:48:35.626Z,15.09
2022-10-22T04:49:35.606Z,14.97
2022-10-22T04:50:35.549Z,14.90
2022-10-22T04:51:35.509Z,14.93
2022-10-22T04:52:35.470Z,14.95
2022-10-22T04:53:35.437Z,14.93
2022-10-22T04:54:35.396Z,14.94
2022-10-22T04:55:35.363Z,14.85
2022-10-22T04:56:35.327Z,14.91
2022-10-22T04:57:35.273Z,14.90
2022-10-22T04:58:35.238Z,14.94
2022-10-22T04:59:35.194Z,15.00
2022-10-22T05:00:35.166Z,15.05
2022-10-22T05:01:38.404Z,14.94
2022-10-22T05:02:35.078Z,14.90
2022-10-22T05:03:35.039Z,14.93
2022-10-22T05:04:34.999Z,14.79
2022-10-22T05:05:34.960Z,14.83
2022-10-22T05:06:34.943Z,14.74
2022-10-22T05:07:34.898Z,14.78
2022-10-22T05:08:34.935Z,14.95
2022-10-22T05:09:34.806Z,14.78
2022-10-22T05:10:34.764Z,14.83
2022-10-22T05:11:34.723Z,14.79
2022-10-22T05:12:34.697Z,14.74
2022-10-22T05:13:34.654Z,14.82
2022-10-22T05:14:34.605Z,14.85
2022-10-22T05:15:34.568Z,14.72
2022-10-22T05:16:34.570Z,14.78
2022-10-22T05:17:34.507Z,14.75
2022-10-22T05:18:34.453Z,14.83
2022-10-22T05:19:34.408Z,14.80
2022-10-22T05:20:34.370Z,14.79
2022-10-22T05:21:34.331Z,14.71
2022-10-22T05:22:34.290Z,14.71
2022-10-22T05:23:34.263Z,14.60
2022-10-22T05:24:34.224Z,14.61
2022-10-22T05:25:34.174Z,14.61
2022-10-22T05:26:34.135Z,14.53
2022-10-22T05:27:34.093Z,14.60
2022-10-22T05:28:34.052Z,14.66
2022-10-22T05:29:34.028Z,14.61
2022-10-22T05:30:33.972Z,14.66
2022-10-22T05:31:33.937Z,14.60
2022-10-22T05:32:33.895Z,14.66
2022-10-22T05:33:34.912Z,14.71
2022-10-22T05:34:33.817Z,14.63
2022-10-22T05:35:33.796Z,14.60
2022-10-22T05:36:33.746Z,14.52
2022-10-22T05:37:33.698Z,14.52
2022-10-22T05:38:33.657Z,14.59
2022-10-22T05:39:33.620Z,14.57
2022-10-22T05:40:33.579Z,14.60
2022-10-22T05:41:33.540Z,14.45
2022-10-22T05:42:33.513Z,14.45
2022-10-22T05:43:33.555Z,14.46
2022-10-22T05:44:33.427Z,14.44
2022-10-22T05:45:33.382Z,14.57
2022-10-22T05:46:33.342Z,14.60
2022-10-22T05:47:33.304Z,14.56
2022-10-22T05:49:33.226Z,14.48
2022-10-22T05:50:33.189Z,14.53
2022-10-22T05:51:33.147Z,14.45
2022-10-22T05:52:33.103Z,14.46
2022-10-22T05:53:33.083Z,14.59
2022-10-22T05:54:33.026Z,14.49
2022-10-22T05:55:32.987Z,14.57
2022-10-22T05:56:32.947Z,14.63
2022-10-22T05:57:32.907Z,14.59
2022-10-22T05:58:32.866Z,14.57
2022-10-22T05:59:32.840Z,14.52
2022-10-22T06:00:32.789Z,14.45
2022-10-22T06:01:32.749Z,14.45
2022-10-22T06:02:32.779Z,14.45
2022-10-22T06:03:32.672Z,14.45
2022-10-22T06:04:32.632Z,14.46
2022-10-22T06:05:32.606Z,14.52
2022-10-22T06:06:32.552Z,14.66
2022-10-22T06:07:32.512Z,14.48
2022-10-22T06:08:32.517Z,14.59
2022-10-22T06:09:32.475Z,14.49
2022-10-22T06:10:32.409Z,14.54
2022-10-22T06:11:34.995Z,14.48
2022-10-22T06:12:32.329Z,14.57
2022-10-22T06:13:32.286Z,14.60
2022-10-22T06:14:32.235Z,14.56
2022-10-22T06:15:32.195Z,14.66
2022-10-22T06:16:32.163Z,14.57
2022-10-22T06:17:32.128Z,14.75
2022-10-22T06:18:32.079Z,14.57
2022-10-22T06:19:32.039Z,14.72
2022-10-22T06:20:31.997Z,14.74
2022-10-22T06:21:31.960Z,14.75
2022-10-22T06:22:31.923Z,14.80
2022-10-22T06:23:31.971Z,14.66
2022-10-22T06:24:31.841Z,14.74
2022-10-22T06:25:31.803Z,14.74
2022-10-22T06:26:31.764Z,14.79
2022-10-22T06:27:31.728Z,14.86
2022-10-22T06:28:31.713Z,14.90
2022-10-22T06:29:31.659Z,14.82
2022-10-22T06:30:31.607Z,14.87
2022-10-22T06:31:31.566Z,14.91
2022-10-22T06:32:31.527Z,14.86
2022-10-22T06:33:31.492Z,14.90
2022-10-22T06:34:31.446Z,14.95
2022-10-22T06:35:31.428Z,14.93
2022-10-22T06:36:31.413Z,14.98
2022-10-22T06:37:31.330Z,14.86
2022-10-22T06:38:31.292Z,14.94
2022-10-22T06:39:31.261Z,14.87
2022-10-22T06:40:31.214Z,15.07
2022-10-22T06:41:31.189Z,15.00
2022-10-22T06:42:31.139Z,15.09
2022-10-22T06:43:31.093Z,15.11
2022-10-22T06:44:31.053Z,15.15
2022-10-22T06:45:31.016Z,15.15
2022-10-22T06:46:30.991Z,15.15
2022-10-22T06:47:30.938Z,15.27
2022-10-22T06:48:30.907Z,15.09
2022-10-22T06:49:30.872Z,15.19
2022-10-22T06:50:30.826Z,15.15
2022-10-22T06:51:30.780Z,15.07
2022-10-22T06:52:30.742Z,15.11
2022-10-22T06:53:30.707Z,15.05
2022-10-22T06:54:30.664Z,15.12
2022-10-22T06:55:30.633Z,15.16
2022-10-22T06:56:30.586Z,15.18
2022-10-22T06:57:30.546Z,15.23
2022-10-22T06:58:30.527Z,15.34
2022-10-22T06:59:30.476Z,15.37
2022-10-22T07:00:30.524Z,15.44
2022-10-22T07:01:30.435Z,15.81
2022-10-22T07:02:30.352Z,16.16
2022-10-22T07:03:30.317Z,16.42
2022-10-22T07:04:30.275Z,16.96
2022-10-22T07:05:30.230Z,17.32
2022-10-22T07:06:30.216Z,17.47
2022-10-22T07:07:30.173Z,17.87
2022-10-22T07:08:30.119Z,18.13
2022-10-22T07:09:30.082Z,18.57
2022-10-22T07:10:30.812Z,18.75
2022-10-22T07:11:30.011Z,19.12
2022-10-22T07:12:29.979Z,19.42
2022-10-22T07:13:29.926Z,19.42
2022-10-22T07:14:29.896Z,19.30
2022-10-22T07:15:29.856Z,19.32
2022-10-22T07:16:32.493Z,19.31
2022-10-22T07:17:29.806Z,19.71
2022-10-22T07:18:29.759Z,19.87
2022-10-22T07:19:29.706Z,19.68
2022-10-22T07:20:29.672Z,19.85
2022-10-22T07:21:29.639Z,20.10
2022-10-22T07:22:29.600Z,20.12
2022-10-22T07:23:29.562Z,20.23
2022-10-22T07:24:29.537Z,20.42
2022-10-22T07:25:29.495Z,20.40
2022-10-22T07:26:29.458Z,20.48
2022-10-22T07:27:29.421Z,20.50
2022-10-22T07:28:29.386Z,20.16
2022-10-22T07:29:29.355Z,19.83
2022-10-22T07:30:29.330Z,19.83
2022-10-22T07:31:29.286Z,19.72
2022-10-22T07:32:29.245Z,19.55
2022-10-22T07:33:29.213Z,19.38
2022-10-22T07:34:29.184Z,19.16
2022-10-22T07:35:29.155Z,19.02
2022-10-22T07:36:29.118Z,18.76
2022-10-22T07:37:29.069Z,18.53
2022-10-22T07:38:29.036Z,18.34
2022-10-22T07:39:28.998Z,18.16
2022-10-22T07:40:28.969Z,18.02
2022-10-22T07:41:28.944Z,17.76
2022-10-22T07:43:28.852Z,17.73
2022-10-22T07:44:28.818Z,17.65
2022-10-22T07:45:28.784Z,17.57
2022-10-22T07:46:28.758Z,17.42
2022-10-22T07:47:28.726Z,17.51
2022-10-22T07:48:28.682Z,17.58
2022-10-22T07:49:28.640Z,17.63
2022-10-22T07:50:28.603Z,17.70
2022-10-22T07:51:28.566Z,17.76
2022-10-22T07:52:28.534Z,17.73
2022-10-22T07:53:28.510Z,17.71
2022-10-22T07:54:28.458Z,17.65
2022-10-22T07:55:28.418Z,17.77
2022-10-22T07:56:28.386Z,17.84
2022-10-22T07:57:28.348Z,17.81
2022-10-22T07:58:28.327Z,17.71
2022-10-22T07:59:28.274Z,17.63
2022-10-22T08:00:28.240Z,17.62
2022-10-22T08:01:28.289Z,17.62
2022-10-22T08:02:28.166Z,17.68
2022-10-22T08:03:28.129Z,17.73
2022-10-22T08:04:28.104Z,17.74
2022-10-22T08:05:28.060Z,17.60
2022-10-22T08:06:28.034Z,17.66
2022-10-22T08:07:27.986Z,17.42
2022-10-22T08:08:30.459Z,17.47
2022-10-22T08:09:27.952Z,17.45
2022-10-22T08:10:27.887Z,17.38
2022-10-22T08:11:27.833Z,17.30
2022-10-22T08:12:27.799Z,17.36
2022-10-22T08:13:27.763Z,17.32
2022-10-22T08:14:27.723Z,17.32
2022-10-22T08:15:27.688Z,17.18
2022-10-22T08:16:27.664Z,16.99
2022-10-22T08:17:27.613Z,16.99
2022-10-22T08:18:27.584Z,16.88
2022-10-22T08:19:27.539Z,16.81
2022-10-22T08:20:27.516Z,16.78
2022-10-22T08:21:27.465Z,16.87
2022-10-22T08:22:27.429Z,16.85
2022-10-22T08:23:28.663Z,16.88
2022-10-22T08:24:27.353Z,16.73
2022-10-22T08:25:27.325Z,16.75
2022-10-22T08:26:27.297Z,16.67
2022-10-22T08:27:27.241Z,16.63
2022-10-22T08:28:27.206Z,16.62
2022-10-22T08:29:27.166Z,16.70
2022-10-22T08:30:27.134Z,16.69
2022-10-22T08:31:27.090Z,16.55
2022-10-22T08:33:27.014Z,16.54
2022-10-22T08:34:26.980Z,16.62
2022-10-22T08:35:27.561Z,16.69
2022-10-22T08:36:26.906Z,16.77
2022-10-22T08:37:26.877Z,16.59
2022-10-22T08:38:26.843Z,16.77
2022-10-22T08:39:26.788Z,16.78
2022-10-22T08:40:26.764Z,16.75
2022-10-22T08:41:26.718Z,16.65
2022-10-22T08:42:26.678Z,16.75
2022-10-22T08:43:26.639Z,16.66
2022-10-22T08:44:26.602Z,16.75
2022-10-22T08:45:26.566Z,16.73
2022-10-22T08:46:26.543Z,16.72
2022-10-22T08:47:26.491Z,16.77
2022-10-22T08:48:26.451Z,16.80
2022-10-22T08:49:26.421Z,16.81
2022-10-22T08:50:26.375Z,16.81
2022-10-22T08:51:26.339Z,16.88
2022-10-22T08:52:26.314Z,16.73
2022-10-22T08:53:35.578Z,16.88
2022-10-22T08:54:26.226Z,16.85
2022-10-22T08:55:26.186Z,16.87
2022-10-22T08:56:26.154Z,16.84
2022-10-22T08:57:26.141Z,16.87
2022-10-22T08:58:26.088Z,16.98
2022-10-22T08:59:26.035Z,17.02
2022-10-22T09:00:25.999Z,17.03
2022-10-22T09:01:25.960Z,17.06
2022-10-22T09:02:25.925Z,17.02
2022-10-22T09:03:25.884Z,17.12
2022-10-22T09:04:25.859Z,17.20
2022-10-22T09:05:25.812Z,17.30
2022-10-22T09:06:25.778Z,17.40
2022-10-22T09:07:25.737Z,17.57
2022-10-22T09:08:25.699Z,17.60
2022-10-22T09:09:25.661Z,17.68
2022-10-22T09:10:25.636Z,17.62
2022-10-22T09:11:25.589Z,17.60
2022-10-22T09:12:25.547Z,17.74
2022-10-22T09:13:25.512Z,17.74
2022-10-22T09:14:25.474Z,17.71
2022-10-22T09:15:25.436Z,17.80
2022-10-22T09:16:25.412Z,17.71
2022-10-22T09:17:25.363Z,17.62
2022-10-22T09:18:25.328Z,17.66
2022-10-22T09:19:25.287Z,17.65
2022-10-22T09:20:25.252Z,17.66
2022-10-22T09:21:25.214Z,17.71
2022-10-22T09:22:25.294Z,17.74
2022-10-22T09:23:25.143Z,17.68
2022-10-22T09:24:26.628Z,17.77
2022-10-22T09:25:25.067Z,17.80
2022-10-22T09:26:25.034Z,17.80
2022-10-22T09:27:25.002Z,17.79
2022-10-22T09:28:24.980Z,17.91
2022-10-22T09:29:24.919Z,17.80
2022-10-22T09:30:24.885Z,17.79
2022-10-22T09:31:24.849Z,17.79
2022-10-22T09:32:24.823Z,17.74
2022-10-22T09:33:24.932Z,17.55
2022-10-22T09:34:24.739Z,17.79
2022-10-22T09:35:24.700Z,17.65
2022-10-22T09:36:24.663Z,17.62
2022-10-22T09:37:24.625Z,17.63
2022-10-22T09:38:24.602Z,17.62
2022-10-22T09:39:24.551Z,17.62
2022-10-22T09:40:24.516Z,17.76
2022-10-22T09:41:24.478Z,17.68
2022-10-22T09:42:24.446Z,17.70
2022-10-22T09:43:24.405Z,17.74
2022-10-22T09:44:24.381Z,17.65
2022-10-22T09:45:24.343Z,17.73
2022-10-22T09:46:24.293Z,17.65
2022-10-22T09:47:32.710Z,17.62
2022-10-22T09:48:24.222Z,17.68
2022-10-22T09:49:24.184Z,17.76
2022-10-22T09:50:24.146Z,17.76
2022-10-22T09:51:24.122Z,17.62
2022-10-22T09:52:24.074Z,17.74
2022-10-22T09:53:24.034Z,17.80
2022-10-22T09:54:24.000Z,17.77
2022-10-22T09:55:23.960Z,17.80
2022-10-22T09:56:23.925Z,17.68
2022-10-22T09:57:23.895Z,17.80
2022-10-22T09:58:23.862Z,17.80
2022-10-22T09:59:23.812Z,17.81
2022-10-22T10:00:23.775Z,17.79
2022-10-22T10:01:23.737Z,17.84
2022-10-22T10:02:38.357Z,17.80
2022-10-22T10:03:23.725Z,17.73
2022-10-22T10:04:26.639Z,17.86
2022-10-22T10:05:23.588Z,17.87
2022-10-22T10:06:23.554Z,17.89
2022-10-22T10:07:23.514Z,17.92
2022-10-22T10:08:23.479Z,17.89
2022-10-22T10:09:23.480Z,17.98
2022-10-22T10:10:23.416Z,17.99
2022-10-22T10:11:26.777Z,17.92
2022-10-22T10:12:23.331Z,17.83
2022-10-22T10:13:23.293Z,17.83
2022-10-22T10:14:23.262Z,17.95
2022-10-22T10:15:23.257Z,17.99
2022-10-22T10:16:23.185Z,17.92
2022-10-22T10:17:23.159Z,17.86
2022-10-22T10:18:23.110Z,17.94
2022-10-22T10:19:23.071Z,17.81
2022-10-22T10:20:23.045Z,17.80
2022-10-22T10:21:23.016Z,17.86
2022-10-22T10:22:22.963Z,17.91
2022-10-22T10:23:24.581Z,17.89
2022-10-22T10:24:22.889Z,17.96
2022-10-22T10:25:22.855Z,17.95
2022-10-22T10:26:22.817Z,18.07
2022-10-22T10:27:22.795Z,17.99
2022-10-22T10:28:22.742Z,18.10
2022-10-22T10:29:22.705Z,18.17
2022-10-22T10:30:22.670Z,18.21
2022-10-22T10:31:22.630Z,18.20
2022-10-22T10:32:24.398Z,18.31
2022-10-22T10:33:22.569Z,18.31
2022-10-22T10:34:22.523Z,18.35
2022-10-22T10:35:22.484Z,18.53
2022-10-22T10:36:22.448Z,18.49
2022-10-22T10:37:22.412Z,18.54
2022-10-22T10:38:24.723Z,18.51
2022-10-22T10:39:22.348Z,18.44
2022-10-22T10:40:22.313Z,18.36
2022-10-22T10:41:22.266Z,18.34
2022-10-22T10:42:22.236Z,18.35
2022-10-22T10:43:22.190Z,18.47
2022-10-22T10:44:22.169Z,18.39
2022-10-22T10:45:22.121Z,18.46
2022-10-22T10:46:22.084Z,18.51
2022-10-22T10:47:22.045Z,18.54
2022-10-22T10:48:22.010Z,18.62
2022-10-22T10:49:21.991Z,18.68
2022-10-22T10:50:21.936Z,18.62
2022-10-22T10:51:21.901Z,18.65
2022-10-22T10:52:21.862Z,18.66
2022-10-22T10:53:21.828Z,18.74
2022-10-22T10:54:21.792Z,18.90
2022-10-22T10:55:21.765Z,18.86
2022-10-22T10:56:21.719Z,18.87
2022-10-22T10:57:21.686Z,19.07
2022-10-22T10:58:21.648Z,19.10
2022-10-22T10:59:21.621Z,18.91
2022-10-22T11:00:21.579Z,18.93
2022-10-22T11:01:21.588Z,18.83
2022-10-22T11:02:21.506Z,18.78
2022-10-22T11:03:21.470Z,18.62
2022-10-22T11:04:21.436Z,18.69
2022-10-22T11:05:21.406Z,18.64
2022-10-22T11:06:24.561Z,18.53
2022-10-22T11:07:34.191Z,18.36
2022-10-22T11:08:21.286Z,18.35
2022-10-22T11:09:21.250Z,18.26
2022-10-22T11:10:21.214Z,18.28
2022-10-22T11:11:21.195Z,18.11
2022-10-22T11:12:21.141Z,18.11
2022-10-22T11:13:21.108Z,17.96
2022-10-22T11:14:21.068Z,18.05
2022-10-22T11:15:21.032Z,18.09
2022-10-22T11:16:20.998Z,18.01
2022-10-22T11:17:20.973Z,17.98
2022-10-22T11:18:20.926Z,17.98
2022-10-22T11:19:23.192Z,18.11
2022-10-22T11:20:20.849Z,18.05
2022-10-22T11:21:20.828Z,17.96
2022-10-22T11:22:25.827Z,18.01
2022-10-22T11:23:21.739Z,18.13
2022-10-22T11:24:20.711Z,18.13
2022-10-22T11:25:20.670Z,18.09
2022-10-22T11:26:20.646Z,18.19
2022-10-22T11:27:20.593Z,18.11
2022-10-22T11:28:20.559Z,18.11
2022-10-22T11:29:20.522Z,18.05
2022-10-22T11:30:20.483Z,18.10
2022-10-22T11:31:20.461Z,18.07
2022-10-22T11:32:20.422Z,18.11
2022-10-22T11:33:20.373Z,18.25
2022-10-22T11:34:34.463Z,18.11
2022-10-22T11:35:25.567Z,18.10
2022-10-22T11:36:20.297Z,18.02
2022-10-22T11:37:20.228Z,18.04
2022-10-22T11:38:20.205Z,18.05
2022-10-22T11:39:20.155Z,18.07
2022-10-22T11:40:20.118Z,18.04
2022-10-22T11:41:20.081Z,18.05
2022-10-22T11:42:20.045Z,18.05
2022-10-22T11:43:20.007Z,18.07
2022-10-22T11:44:19.979Z,18.14
2022-10-22T11:45:19.935Z,18.11
2022-10-22T11:46:19.899Z,18.20
2022-10-22T11:47:19.860Z,18.17
2022-10-22T11:48:19.822Z,18.20
2022-10-22T11:49:19.785Z,18.17
2022-10-22T11:50:19.769Z,18.31
2022-10-22T11:51:19.713Z,18.36
2022-10-22T11:52:19.675Z,18.42
2022-10-22T11:53:19.643Z,18.46
2022-10-22T11:54:19.602Z,18.53
2022-10-22T11:55:19.565Z,18.64
2022-10-22T11:56:19.543Z,18.62
2022-10-22T11:57:19.493Z,18.59
2022-10-22T11:58:19.468Z,18.64
2022-10-22T11:59:19.427Z,18.57
2022-10-22T12:00:19.383Z,18.64
2022-10-22T12:01:19.348Z,18.68
2022-10-22T12:02:19.322Z,18.66
2022-10-22T12:03:19.272Z,18.75
2022-10-22T12:04:19.288Z,18.71
2022-10-22T12:05:19.203Z,18.64
2022-10-22T12:06:19.166Z,18.65
2022-10-22T12:07:19.129Z,18.69
2022-10-22T12:08:19.107Z,18.72
2022-10-22T12:09:19.077Z,18.74
2022-10-22T12:10:19.019Z,18.94
2022-10-22T12:11:18.985Z,18.96
2022-10-22T12:12:18.949Z,18.94
2022-10-22T12:13:18.912Z,18.91
2022-10-22T12:14:18.886Z,18.66
2022-10-22T12:15:18.842Z,18.72
2022-10-22T12:16:27.291Z,18.72
2022-10-22T12:17:18.770Z,18.87
2022-10-22T12:18:18.745Z,18.91
2022-10-22T12:19:18.704Z,18.94
2022-10-22T12:20:18.665Z,18.97
2022-10-22T12:21:18.625Z,18.87
2022-10-22T12:22:18.586Z,18.87
2022-10-22T12:23:18.552Z,18.82
2022-10-22T12:24:18.526Z,18.76
2022-10-22T12:25:18.479Z,18.79
2022-10-22T12:26:18.467Z,18.84
2022-10-22T12:27:22.202Z,18.65
2022-10-22T12:28:18.369Z,18.65
2022-10-22T12:29:18.347Z,18.66
2022-10-22T12:30:18.298Z,18.53
2022-10-22T12:31:18.269Z,18.66
2022-10-22T12:32:18.226Z,18.60
2022-10-22T12:33:18.192Z,18.50
2022-10-22T12:34:18.155Z,18.54
2022-10-22T12:35:18.130Z,18.49
2022-10-22T12:36:18.082Z,18.47
2022-10-22T12:37:18.056Z,18.51
2022-10-22T12:38:18.012Z,18.49
2022-10-22T12:39:17.975Z,18.39
2022-10-22T12:40:17.937Z,18.41
2022-10-22T12:41:17.900Z,18.41
2022-10-22T12:42:17.863Z,18.50
2022-10-22T12:43:17.894Z,18.47
2022-10-22T12:44:17.793Z,18.54
2022-10-22T12:45:17.756Z,18.47
2022-10-22T12:46:17.720Z,18.62
2022-10-22T12:47:17.683Z,18.51
2022-10-22T12:48:17.647Z,18.72
2022-10-22T12:49:17.622Z,18.62
2022-10-22T12:50:17.575Z,18.60
2022-10-22T12:51:17.548Z,18.54
2022-10-22T12:52:17.506Z,18.65
2022-10-22T12:53:17.465Z,18.62
2022-10-22T12:54:17.426Z,18.54
2022-10-22T12:55:17.391Z,18.68
2022-10-22T12:56:17.361Z,18.62
2022-10-22T12:57:17.319Z,18.62
2022-10-22T12:58:17.281Z,18.64